Time;durP1;ratioP1;P1;durP2;ratioP2;P2;SDS_P1;SDS_P2;PMS_P1;PMS_P2;Temp;Humidity;BMP_temperature;BMP_pressure;BME280_temperature;BME280_humidity;BME280_pressure;Samples;Min_cycle;Max_cycle;Signal;HPM_P1;HPM_P2
2023/03/30 00:00:56;;;;;;;3.10;2.25;;;16.60;99.90;;;;;;5004135;28;20187;-66
2023/03/30 00:03:22;;;;;;;5.05;1.98;;;16.60;99.90;;;;;;4995628;28;20191;-66
2023/03/30 00:05:50;;;;;;;4.47;2.50;;;16.50;99.90;;;;;;5002551;28;20214;-66
2023/03/30 00:08:17;;;;;;;3.17;2.60;;;16.50;99.90;;;;;;5002023;28;20626;-66
2023/03/30 00:10:45;;;;;;;4.85;2.78;;;16.50;99.90;;;;;;5005334;28;20707;-66
2023/03/30 00:13:12;;;;;;;3.53;2.35;;;16.40;99.90;;;;;;5032637;28;20238;-66
2023/03/30 00:15:38;;;;;;;3.22;2.03;;;16.40;99.90;;;;;;4997454;28;20191;-65
2023/03/30 00:18:04;;;;;;;3.47;2.22;;;16.60;99.90;;;;;;5003676;28;20273;-66
2023/03/30 00:20:32;;;;;;;2.40;1.88;;;16.50;99.90;;;;;;4995314;28;20196;-66
2023/03/30 00:22:58;;;;;;;5.40;2.08;;;16.40;99.90;;;;;;5039366;28;20428;-66
2023/03/30 00:25:24;;;;;;;4.20;1.95;;;16.30;99.90;;;;;;5011351;28;20187;-66
2023/03/30 00:27:50;;;;;;;2.33;2.13;;;16.30;99.90;;;;;;5005409;28;20557;-65
2023/03/30 00:30:17;;;;;;;6.45;1.90;;;16.40;99.90;;;;;;5001045;28;20195;-66
2023/03/30 00:32:44;;;;;;;7.03;2.20;;;16.40;99.90;;;;;;4996209;28;20540;-66
2023/03/30 00:35:11;;;;;;;6.00;2.47;;;16.50;99.90;;;;;;5010256;28;20202;-66
2023/03/30 00:37:37;;;;;;;4.55;2.17;;;16.50;99.90;;;;;;5003933;28;20203;-66
2023/03/30 00:40:06;;;;;;;2.83;2.58;;;16.40;99.90;;;;;;5012035;28;20540;-66
2023/03/30 00:42:36;;;;;;;3.80;2.15;;;16.40;99.90;;;;;;5003124;28;20188;-66
2023/03/30 00:45:26;;;;;;;7.40;1.52;;;16.40;99.90;;;;;;5000607;28;20273;-66
2023/03/30 00:48:27;;;;;;;1.92;1.83;;;16.30;99.90;;;;;;5007776;28;20215;-67
2023/03/30 00:50:58;;;;;;;3.33;2.35;;;16.30;99.90;;;;;;4998023;28;20611;-65
2023/03/30 00:53:28;;;;;;;3.47;1.60;;;16.30;99.90;;;;;;5001311;28;20187;-66
2023/03/30 00:55:56;;;;;;;3.60;1.58;;;16.40;99.90;;;;;;5002995;28;20187;-66
2023/03/30 00:58:22;;;;;;;1.83;1.63;;;16.40;99.90;;;;;;5002875;28;20186;-66
2023/03/30 01:00:48;;;;;;;3.70;1.85;;;16.40;99.90;;;;;;5011901;28;20188;-65
2023/03/30 01:03:31;;;;;;;2.15;1.40;;;16.40;99.90;;;;;;5010200;28;20211;-66
2023/03/30 01:05:59;;;;;;;3.10;2.03;;;16.40;99.90;;;;;;5010394;28;20536;-66
2023/03/30 01:08:31;;;;;;;3.10;1.77;;;16.20;99.90;;;;;;5006766;28;20257;-66
2023/03/30 01:11:00;;;;;;;2.83;1.52;;;16.20;99.90;;;;;;5002755;28;20210;-66
2023/03/30 01:13:32;;;;;;;4.85;1.83;;;16.20;99.90;;;;;;5002355;28;20187;-66
2023/03/30 01:16:21;;;;;;;3.20;2.13;;;16.20;99.90;;;;;;5010917;28;20274;-66
2023/03/30 01:18:53;;;;;;;3.35;2.08;;;16.10;99.90;;;;;;5007487;28;20717;-68
2023/03/30 01:21:34;;;;;;;1.48;1.13;;;16.00;99.90;;;;;;5008773;28;20212;-66
2023/03/30 01:24:26;;;;;;;3.28;1.52;;;15.90;99.90;;;;;;4998418;28;20188;-66
2023/03/30 01:27:13;;;;;;;2.00;1.65;;;16.00;99.90;;;;;;5008081;28;20261;-66
2023/03/30 01:29:53;;;;;;;5.43;1.88;;;16.00;99.90;;;;;;5007643;28;20198;-66
2023/03/30 01:33:02;;;;;;;1.52;1.42;;;16.10;99.90;;;;;;5012111;28;20253;-66
2023/03/30 01:36:00;;;;;;;4.25;2.90;;;16.00;99.90;;;;;;5001216;28;20186;-66
2023/03/30 01:39:01;;;;;;;2.58;1.55;;;16.00;99.90;;;;;;5008901;28;20188;-66
2023/03/30 01:41:28;;;;;;;1.17;1.13;;;16.00;99.90;;;;;;5009527;28;20195;-66
2023/03/30 01:44:08;;;;;;;1.60;1.50;;;16.10;99.90;;;;;;5013562;28;20683;-66
2023/03/30 01:46:39;;;;;;;3.72;2.25;;;16.00;99.90;;;;;;5006868;28;20179;-67
2023/03/30 01:49:21;;;;;;;3.53;1.67;;;15.90;99.90;;;;;;5002051;28;20187;-66
2023/03/30 01:51:59;;;;;;;1.85;1.55;;;15.90;99.90;;;;;;5011110;28;20267;-66
2023/03/30 01:54:31;;;;;;;3.72;1.63;;;15.90;99.90;;;;;;5011531;28;20184;-66
2023/03/30 01:57:20;;;;;;;4.00;1.52;;;15.90;99.90;;;;;;5000505;28;20601;-66
2023/03/30 01:59:53;;;;;;;3.83;1.42;;;15.90;99.90;;;;;;5002681;28;20263;-66
2023/03/30 02:02:21;;;;;;;3.88;1.27;;;15.90;99.90;;;;;;5007764;28;20184;-66
2023/03/30 02:04:52;;;;;;;2.10;1.88;;;15.80;99.90;;;;;;5014013;28;20218;-66
2023/03/30 02:07:23;;;;;;;2.42;1.50;;;15.80;99.90;;;;;;5008350;28;20221;-66
2023/03/30 02:09:52;;;;;;;2.17;1.20;;;15.90;99.90;;;;;;5002472;28;20222;-66
2023/03/30 02:12:19;;;;;;;2.03;1.63;;;15.90;99.90;;;;;;5009431;28;20199;-65
2023/03/30 02:14:47;;;;;;;4.47;1.52;;;15.90;99.90;;;;;;5007612;28;20184;-66
2023/03/30 02:17:23;;;;;;;2.72;1.55;;;15.80;99.90;;;;;;5010106;28;20244;-66
2023/03/30 02:19:51;;;;;;;3.63;1.73;;;15.80;99.90;;;;;;4997969;28;20687;-66
2023/03/30 02:22:19;;;;;;;2.13;1.40;;;15.90;99.90;;;;;;5005323;28;20179;-66
2023/03/30 02:24:47;;;;;;;1.98;1.58;;;16.00;99.90;;;;;;5007599;28;20176;-66
2023/03/30 02:27:14;;;;;;;2.55;1.40;;;16.10;99.90;;;;;;5012850;28;20257;-66
2023/03/30 02:29:42;;;;;;;1.65;1.52;;;16.10;99.90;;;;;;5013274;28;20314;-66
2023/03/30 02:32:18;;;;;;;2.42;1.50;;;16.20;99.90;;;;;;5013384;28;20219;-65
2023/03/30 02:35:14;;;;;;;3.38;1.38;;;16.20;99.90;;;;;;5003088;28;20172;-66
2023/03/30 02:37:52;;;;;;;1.40;1.30;;;16.20;99.90;;;;;;4995440;28;20188;-66
2023/03/30 02:41:09;;;;;;;1.55;1.45;;;16.00;99.90;;;;;;5022026;28;20189;-66
2023/03/30 02:43:59;;;;;;;2.65;1.48;;;16.10;99.90;;;;;;4989829;28;20196;-66
2023/03/30 02:46:32;;;;;;;2.33;1.67;;;16.10;99.90;;;;;;5006039;28;20551;-66
2023/03/30 02:49:27;;;;;;;2.55;1.98;;;16.00;99.90;;;;;;5007412;28;20214;-66
2023/03/30 02:52:11;;;;;;;2.60;1.77;;;16.00;99.90;;;;;;4999239;28;20180;-66
2023/03/30 02:55:01;;;;;;;1.63;1.52;;;16.00;99.90;;;;;;5011874;28;20603;-66
2023/03/30 02:57:38;;;;;;;5.85;1.60;;;16.00;99.90;;;;;;5010284;28;20188;-65
2023/03/30 03:00:12;;;;;;;4.07;2.13;;;16.00;99.90;;;;;;5003073;28;20179;-65
2023/03/30 03:02:42;;;;;;;1.80;1.63;;;16.10;99.90;;;;;;5009125;28;20577;-65
2023/03/30 03:05:11;;;;;;;7.43;1.90;;;16.20;99.90;;;;;;5006495;28;20176;-65
2023/03/30 03:07:38;;;;;;;1.30;1.20;;;16.10;99.90;;;;;;5000423;28;20198;-65
2023/03/30 03:10:05;;;;;;;2.20;2.05;;;16.00;99.90;;;;;;5003776;28;20716;-65
2023/03/30 03:12:31;;;;;;;4.35;3.13;;;15.70;99.90;;;;;;5000359;28;20554;-65
2023/03/30 03:14:57;;;;;;;4.13;1.67;;;15.70;99.90;;;;;;5002362;28;20188;-65
2023/03/30 03:17:23;;;;;;;2.95;2.08;;;15.70;99.90;;;;;;4996918;28;20227;-65
2023/03/30 03:19:49;;;;;;;2.15;1.60;;;15.60;99.90;;;;;;5010782;28;20195;-65
2023/03/30 03:22:15;;;;;;;4.75;1.90;;;15.70;99.90;;;;;;5004303;28;20596;-65
2023/03/30 03:24:41;;;;;;;2.92;1.65;;;15.70;99.90;;;;;;4999581;28;20184;-65
2023/03/30 03:27:07;;;;;;;2.95;1.63;;;15.60;99.90;;;;;;5028070;28;20257;-65
2023/03/30 03:29:33;;;;;;;2.95;1.95;;;15.60;99.90;;;;;;4994610;28;20534;-65
2023/03/30 03:31:59;;;;;;;5.10;1.58;;;15.60;99.90;;;;;;5005951;28;20184;-65
2023/03/30 03:34:30;;;;;;;1.85;1.75;;;15.60;99.90;;;;;;5039054;28;20665;-65
2023/03/30 03:36:56;;;;;;;1.45;1.30;;;15.50;99.90;;;;;;5010701;28;20188;-65
2023/03/30 03:39:22;;;;;;;2.33;1.85;;;15.40;99.90;;;;;;4996506;28;20176;-65
2023/03/30 03:41:47;;;;;;;3.50;1.90;;;15.30;99.90;;;;;;4996643;28;20190;-65
2023/03/30 03:44:13;;;;;;;6.25;1.80;;;15.30;99.90;;;;;;5000082;28;20172;-65
2023/03/30 03:46:39;;;;;;;2.33;1.35;;;15.20;99.90;;;;;;4993364;28;20572;-65
2023/03/30 03:49:05;;;;;;;2.65;1.63;;;15.30;99.90;;;;;;5010984;28;20219;-65
2023/03/30 03:51:31;;;;;;;3.65;3.22;;;15.30;99.90;;;;;;5011579;28;20186;-65
2023/03/30 03:53:58;;;;;;;1.75;1.63;;;15.30;99.90;;;;;;5005019;28;20640;-65
2023/03/30 03:56:24;;;;;;;1.50;1.40;;;15.40;99.90;;;;;;5006134;28;20272;-65
2023/03/30 03:58:50;;;;;;;1.60;1.27;;;15.30;99.90;;;;;;5009663;28;20732;-65
2023/03/30 04:01:15;;;;;;;2.05;1.50;;;15.40;99.90;;;;;;5010990;28;20195;-65
2023/03/30 04:03:41;;;;;;;1.77;1.35;;;15.40;99.90;;;;;;5011668;28;20188;-64
2023/03/30 04:06:08;;;;;;;1.95;1.63;;;15.40;99.90;;;;;;5006702;28;20270;-65
2023/03/30 04:08:34;;;;;;;4.47;1.63;;;15.40;99.90;;;;;;5003409;28;20322;-65
2023/03/30 04:11:08;;;;;;;5.18;1.80;;;15.50;99.90;;;;;;5007098;28;20539;-65
2023/03/30 04:13:35;;;;;;;2.10;1.17;;;15.50;99.90;;;;;;4999196;28;20258;-65
2023/03/30 04:16:01;;;;;;;7.47;2.25;;;15.60;99.90;;;;;;5040957;28;20747;-66
2023/03/30 04:18:30;;;;;;;1.92;1.52;;;15.60;99.90;;;;;;4995662;28;20705;-66
2023/03/30 04:20:58;;;;;;;1.67;1.58;;;15.70;99.90;;;;;;5006152;28;20183;-66
2023/03/30 04:23:29;;;;;;;1.60;1.50;;;15.70;99.90;;;;;;4999922;28;20576;-67
2023/03/30 04:25:56;;;;;;;2.85;1.55;;;15.60;99.90;;;;;;5002139;28;20180;-70
2023/03/30 04:28:23;;;;;;;3.38;1.52;;;15.60;99.90;;;;;;4995728;28;20236;-66
2023/03/30 04:30:49;;;;;;;3.15;1.85;;;15.60;99.90;;;;;;5004996;28;20278;-68
2023/03/30 04:33:15;;;;;;;2.42;1.73;;;15.60;99.90;;;;;;5016897;28;20543;-66
2023/03/30 04:35:42;;;;;;;2.38;1.60;;;15.60;99.90;;;;;;5004361;28;20266;-65
2023/03/30 04:38:08;;;;;;;5.45;1.52;;;15.50;99.90;;;;;;5007775;28;20274;-66
2023/03/30 04:40:33;;;;;;;1.77;1.52;;;15.50;99.90;;;;;;5001593;28;20307;-65
2023/03/30 04:43:01;;;;;;;1.80;1.67;;;15.50;99.90;;;;;;5010731;28;20543;-66
2023/03/30 04:45:28;;;;;;;1.67;1.58;;;15.50;99.90;;;;;;5003733;28;20187;-65
2023/03/30 04:47:53;;;;;;;1.50;1.40;;;15.50;99.90;;;;;;5001657;28;20211;-66
2023/03/30 04:50:19;;;;;;;1.70;1.30;;;15.40;99.90;;;;;;4999771;28;20184;-66
2023/03/30 04:52:45;;;;;;;2.50;1.23;;;15.30;99.90;;;;;;4993323;28;20181;-65
2023/03/30 04:55:11;;;;;;;2.50;1.70;;;15.30;99.90;;;;;;5003286;28;20552;-65
2023/03/30 04:57:36;;;;;;;3.30;1.65;;;15.30;99.90;;;;;;5009235;28;20188;-65
2023/03/30 05:00:06;;;;;;;3.10;1.30;;;15.20;99.90;;;;;;5008182;28;20279;-65
2023/03/30 05:02:32;;;;;;;1.63;1.45;;;15.20;99.90;;;;;;5007240;28;20221;-65
2023/03/30 05:04:58;;;;;;;3.40;1.67;;;15.30;99.90;;;;;;5015616;28;20199;-66
2023/03/30 05:07:23;;;;;;;2.90;1.75;;;15.30;99.90;;;;;;5004555;28;20664;-66
2023/03/30 05:09:49;;;;;;;2.55;1.92;;;14.90;99.90;;;;;;5011442;28;20258;-66
2023/03/30 05:12:15;;;;;;;2.70;1.63;;;14.70;99.90;;;;;;4996189;28;20180;-70
2023/03/30 05:14:41;;;;;;;2.08;1.70;;;14.50;99.90;;;;;;5002830;28;20194;-66
2023/03/30 05:17:07;;;;;;;4.18;1.63;;;14.40;99.90;;;;;;5015583;28;20243;-66
2023/03/30 05:19:33;;;;;;;2.95;1.58;;;14.30;99.90;;;;;;5015239;28;20179;-65
2023/03/30 05:21:59;;;;;;;1.83;1.70;;;14.20;99.90;;;;;;5003289;28;20195;-65
2023/03/30 05:24:25;;;;;;;2.67;1.40;;;14.20;99.90;;;;;;5005752;28;20187;-66
2023/03/30 05:26:51;;;;;;;4.38;2.00;;;14.30;99.90;;;;;;5009629;28;20488;-66
2023/03/30 05:29:17;;;;;;;2.92;1.50;;;14.20;99.90;;;;;;5016551;28;20200;-66
2023/03/30 05:31:42;;;;;;;4.32;1.73;;;14.30;99.90;;;;;;5013925;28;20175;-66
2023/03/30 05:34:08;;;;;;;2.65;2.08;;;14.30;99.90;;;;;;5000109;28;20187;-65
2023/03/30 05:36:34;;;;;;;2.60;1.88;;;14.30;99.90;;;;;;5022310;28;20184;-66
2023/03/30 05:39:00;;;;;;;1.42;1.33;;;14.30;99.90;;;;;;5003957;28;20195;-66
2023/03/30 05:41:27;;;;;;;2.45;1.73;;;14.30;99.90;;;;;;4997366;28;20188;-66
2023/03/30 05:43:53;;;;;;;5.80;1.83;;;14.30;99.90;;;;;;5010709;28;20183;-66
2023/03/30 05:46:18;;;;;;;4.18;1.48;;;14.30;99.90;;;;;;5006442;28;20191;-66
2023/03/30 05:48:44;;;;;;;4.70;1.65;;;14.20;99.90;;;;;;5011204;28;20262;-66
2023/03/30 05:51:10;;;;;;;2.83;1.40;;;14.40;99.90;;;;;;5007716;28;20648;-66
2023/03/30 05:53:36;;;;;;;1.73;1.40;;;14.40;99.90;;;;;;5011443;28;20185;-67
2023/03/30 05:56:02;;;;;;;6.00;2.33;;;14.30;99.90;;;;;;5014545;28;20195;-66
2023/03/30 05:58:27;;;;;;;6.07;1.98;;;14.20;99.90;;;;;;5026877;28;20572;-66
2023/03/30 06:00:56;;;;;;;2.70;1.35;;;14.20;99.90;;;;;;4998736;28;20234;-66
2023/03/30 06:03:22;;;;;;;4.75;2.03;;;14.40;99.90;;;;;;5002033;28;20176;-65
2023/03/30 06:05:48;;;;;;;5.90;1.70;;;14.60;99.90;;;;;;5006560;28;20229;-66
2023/03/30 06:08:14;;;;;;;3.03;1.17;;;14.40;99.90;;;;;;5013462;28;20207;-66
2023/03/30 06:10:40;;;;;;;5.22;1.52;;;14.40;99.90;;;;;;5006516;28;20250;-67
2023/03/30 06:13:06;;;;;;;5.53;1.55;;;14.50;99.90;;;;;;5012905;28;20230;-65
2023/03/30 06:15:32;;;;;;;8.23;1.75;;;14.50;99.90;;;;;;5009400;28;20683;-65
2023/03/30 06:17:58;;;;;;;6.43;1.98;;;14.50;99.90;;;;;;5008397;28;20266;-67
2023/03/30 06:20:25;;;;;;;2.13;1.63;;;14.60;99.90;;;;;;4993627;28;20215;-65
2023/03/30 06:22:51;;;;;;;10.55;1.77;;;14.60;99.90;;;;;;5004385;28;20341;-65
2023/03/30 06:25:22;;;;;;;3.67;1.20;;;14.70;99.90;;;;;;5008289;28;20187;-65
2023/03/30 06:27:48;;;;;;;6.78;1.80;;;14.70;99.90;;;;;;5003383;28;20699;-65
2023/03/30 06:30:14;;;;;;;9.85;2.00;;;14.60;99.90;;;;;;5011287;28;20191;-65
2023/03/30 06:32:40;;;;;;;4.32;2.30;;;14.60;99.90;;;;;;5006613;28;20191;-66
2023/03/30 06:35:06;;;;;;;2.10;1.45;;;14.50;99.90;;;;;;5011475;28;20548;-65
2023/03/30 06:37:35;;;;;;;9.20;2.75;;;14.60;99.90;;;;;;5010734;28;20665;-66
2023/03/30 06:40:06;;;;;;;2.50;1.75;;;14.60;99.90;;;;;;5021334;28;20195;-65
2023/03/30 06:42:32;;;;;;;3.95;1.73;;;14.60;99.90;;;;;;5008459;28;20183;-66
2023/03/30 06:44:58;;;;;;;2.70;1.70;;;14.60;99.90;;;;;;4996156;28;20183;-65
2023/03/30 06:47:23;;;;;;;4.68;2.20;;;14.60;99.90;;;;;;5013000;28;20289;-66
2023/03/30 06:49:49;;;;;;;3.55;1.63;;;14.50;99.90;;;;;;5006847;28;20211;-68
2023/03/30 06:52:16;;;;;;;2.85;1.83;;;14.60;99.90;;;;;;5003764;28;20184;-67
2023/03/30 06:54:41;;;;;;;5.32;2.08;;;14.50;99.90;;;;;;5002644;28;20706;-67
2023/03/30 06:57:07;;;;;;;4.28;1.70;;;14.50;99.90;;;;;;5040476;28;20199;-67
2023/03/30 06:59:33;;;;;;;8.07;2.72;;;14.60;99.90;;;;;;5012513;28;20588;-67
2023/03/30 07:01:59;;;;;;;5.20;2.13;;;14.80;99.90;;;;;;5010176;28;20278;-67
2023/03/30 07:04:25;;;;;;;8.02;1.88;;;15.00;99.90;;;;;;5004475;28;20210;-67
2023/03/30 07:06:51;;;;;;;5.15;2.10;;;15.10;99.90;;;;;;5007288;28;20188;-68
2023/03/30 07:09:17;;;;;;;4.78;1.52;;;15.30;99.90;;;;;;5008373;28;20199;-66
2023/03/30 07:11:43;;;;;;;3.60;1.58;;;15.40;99.90;;;;;;5012075;28;20183;-67
2023/03/30 07:14:11;;;;;;;3.50;1.45;;;15.50;99.90;;;;;;5007285;28;20184;-66
2023/03/30 07:16:37;;;;;;;12.38;2.75;;;15.40;99.90;;;;;;5011900;28;20231;-64
2023/03/30 07:19:04;;;;;;;6.50;1.67;;;15.50;99.90;;;;;;5006467;28;20199;-65
2023/03/30 07:21:31;;;;;;;4.53;1.73;;;15.70;99.90;;;;;;4994542;28;20180;-66
2023/03/30 07:24:00;;;;;;;4.25;1.40;;;15.90;99.90;;;;;;4994378;28;20176;-67
2023/03/30 07:26:27;;;;;;;4.45;1.83;;;16.10;99.90;;;;;;5022871;28;20190;-67
2023/03/30 07:28:52;;;;;;;4.97;1.65;;;16.50;99.90;;;;;;5001264;28;20203;-67
2023/03/30 07:31:20;;;;;;;12.93;2.58;;;16.90;99.90;;;;;;5022790;28;20187;-66
2023/03/30 07:33:46;;;;;;;3.63;1.63;;;16.90;99.90;;;;;;5003025;28;20187;-70
2023/03/30 07:36:12;;;;;;;5.18;2.40;;;16.70;99.90;;;;;;5004279;28;20186;-66
2023/03/30 07:38:38;;;;;;;4.13;1.83;;;16.40;99.90;;;;;;5011259;28;20203;-64
2023/03/30 07:41:12;;;;;;;7.95;1.70;;;16.00;99.90;;;;;;5002371;28;20214;-64
2023/03/30 07:43:40;;;;;;;6.07;2.13;;;15.80;99.90;;;;;;5007668;28;20180;-64
2023/03/30 07:46:08;;;;;;;5.45;1.38;;;15.70;99.90;;;;;;5011311;28;20214;-64
2023/03/30 07:48:34;;;;;;;7.38;2.22;;;16.40;99.90;;;;;;5002821;28;20270;-66
2023/03/30 07:51:05;;;;;;;8.73;1.67;;;17.20;99.90;;;;;;5002030;28;20188;-66
2023/03/30 07:53:31;;;;;;;7.05;1.40;;;17.20;99.90;;;;;;4999879;28;20195;-66
2023/03/30 07:55:57;;;;;;;7.07;2.25;;;17.50;99.90;;;;;;5018111;28;20538;-67
2023/03/30 07:58:23;;;;;;;5.07;1.55;;;17.40;99.90;;;;;;5005566;28;20183;-67
2023/03/30 08:00:49;;;;;;;8.65;1.70;;;17.20;99.90;;;;;;5011524;28;20190;-67
2023/03/30 08:03:15;;;;;;;11.57;1.83;;;17.00;99.90;;;;;;5011410;28;20183;-67
2023/03/30 08:05:41;;;;;;;7.28;1.80;;;16.50;99.90;;;;;;5008599;28;20668;-67
2023/03/30 08:08:07;;;;;;;3.05;1.67;;;16.30;99.90;;;;;;5033160;28;20286;-67
2023/03/30 08:10:34;;;;;;;7.72;1.75;;;16.20;99.90;;;;;;5000727;28;20274;-67
2023/03/30 08:13:00;;;;;;;6.90;1.88;;;15.90;99.90;;;;;;5010980;28;20190;-67
2023/03/30 08:15:26;;;;;;;2.55;1.67;;;15.70;99.90;;;;;;5005577;28;20263;-69
2023/03/30 08:17:52;;;;;;;12.30;2.15;;;15.80;99.90;;;;;;5023281;28;20266;-67
2023/03/30 08:20:18;;;;;;;13.93;2.30;;;15.80;99.90;;;;;;5003633;28;20218;-68
2023/03/30 08:22:44;;;;;;;11.23;2.05;;;15.80;99.90;;;;;;5002713;28;20238;-65
2023/03/30 08:25:10;;;;;;;4.57;1.50;;;15.60;99.90;;;;;;5005455;28;20692;-68
2023/03/30 08:27:36;;;;;;;8.40;2.33;;;15.60;99.90;;;;;;5025031;28;20279;-66
2023/03/30 08:30:03;;;;;;;4.43;1.98;;;15.60;99.90;;;;;;5011817;28;20656;-66
2023/03/30 08:32:28;;;;;;;9.88;2.75;;;15.50;99.90;;;;;;5008813;28;20203;-66
2023/03/30 08:34:54;;;;;;;3.17;2.20;;;15.70;99.90;;;;;;5005052;28;20187;-65
2023/03/30 08:37:20;;;;;;;9.77;2.92;;;16.70;99.90;;;;;;5008453;28;20188;-66
2023/03/30 08:39:45;;;;;;;9.30;1.73;;;17.50;99.90;;;;;;5014892;28;20190;-65
2023/03/30 08:42:14;;;;;;;10.05;1.67;;;17.90;99.90;;;;;;5015346;28;20191;-66
2023/03/30 08:44:43;;;;;;;6.43;2.17;;;19.30;99.90;;;;;;5014842;28;20179;-66
2023/03/30 08:47:15;;;;;;;5.05;1.65;;;20.80;99.90;;;;;;5005510;28;20640;-66
2023/03/30 08:50:00;;;;;;;6.57;1.95;;;20.90;99.90;;;;;;5006350;28;20648;-66
2023/03/30 08:52:26;;;;;;;4.18;1.20;;;20.00;99.90;;;;;;5033545;28;20233;-66
2023/03/30 08:54:52;;;;;;;4.05;1.50;;;19.00;99.90;;;;;;5008154;28;20584;-66
2023/03/30 08:57:44;;;;;;;2.85;1.10;;;18.40;99.90;;;;;;5012828;28;20179;-66
2023/03/30 09:00:20;;;;;;;6.68;1.50;;;17.80;99.90;;;;;;5006596;28;20188;-66
2023/03/30 09:02:51;;;;;;;7.68;1.88;;;17.40;99.90;;;;;;5003000;28;20163;-66
2023/03/30 09:05:31;;;;;;;4.20;1.25;;;17.20;99.90;;;;;;5011479;28;20183;-65
2023/03/30 09:08:09;;;;;;;5.70;1.20;;;17.30;99.90;;;;;;4999390;28;20604;-66
2023/03/30 09:10:40;;;;;;;5.63;1.55;;;17.70;99.90;;;;;;5004931;28;20179;-66
2023/03/30 09:13:06;;;;;;;11.48;1.75;;;17.50;99.90;;;;;;5011308;28;20179;-66
2023/03/30 09:15:43;;;;;;;6.00;1.75;;;17.60;99.90;;;;;;5002899;28;20192;-66
2023/03/30 09:18:25;;;;;;;2.83;1.73;;;17.60;99.90;;;;;;5005881;28;20258;-66
2023/03/30 09:20:54;;;;;;;3.95;1.65;;;17.40;99.90;;;;;;5006672;28;20267;-66
2023/03/30 09:23:20;;;;;;;8.93;2.33;;;17.30;99.90;;;;;;5007799;28;20183;-66
2023/03/30 09:26:15;;;;;;;4.72;2.58;;;17.10;99.90;;;;;;5004328;28;20655;-66
2023/03/30 09:28:40;;;;;;;8.57;2.78;;;17.10;99.90;;;;;;5004126;28;20529;-65
2023/03/30 09:31:43;;;;;;;6.22;1.73;;;16.90;99.90;;;;;;5011759;28;20179;-66
2023/03/30 09:34:24;;;;;;;3.75;2.05;;;17.00;99.90;;;;;;5008495;28;20182;-65
2023/03/30 09:36:59;;;;;;;3.67;1.65;;;16.90;99.90;;;;;;5004282;28;20181;-66
2023/03/30 09:39:26;;;;;;;7.28;2.20;;;16.70;99.90;;;;;;5014734;28;20627;-65
2023/03/30 09:42:11;;;;;;;3.80;2.00;;;16.80;99.90;;;;;;5000162;28;20187;-64
2023/03/30 09:44:58;;;;;;;2.80;1.02;;;17.20;99.90;;;;;;5006754;28;20211;-63
2023/03/30 09:47:32;;;;;;;7.90;1.90;;;17.70;99.90;;;;;;5001666;28;20250;-64
2023/03/30 09:50:00;;;;;;;3.78;1.98;;;17.70;99.90;;;;;;5007070;28;20222;-64
2023/03/30 09:52:31;;;;;;;2.75;2.38;;;17.90;99.90;;;;;;5030852;28;20176;-65
2023/03/30 09:55:19;;;;;;;5.63;2.47;;;17.90;99.90;;;;;;5002962;28;20571;-65
2023/03/30 09:57:45;;;;;;;7.20;1.67;;;18.00;99.90;;;;;;4996623;28;20188;-65
2023/03/30 10:00:32;;;;;;;2.13;1.92;;;18.00;99.90;;;;;;5008393;28;20282;-66
2023/03/30 10:03:03;;;;;;;3.90;1.52;;;18.10;99.90;;;;;;5000222;28;20184;-67
2023/03/30 10:05:31;;;;;;;5.80;2.10;;;18.00;99.90;;;;;;4996729;28;20203;-66
2023/03/30 10:08:03;;;;;;;6.63;2.63;;;18.10;99.90;;;;;;5008846;28;20672;-67
2023/03/30 10:10:35;;;;;;;2.88;1.52;;;17.80;99.90;;;;;;5012695;28;20191;-67
2023/03/30 10:13:27;;;;;;;3.50;2.85;;;17.50;99.90;;;;;;5001997;28;20187;-65
2023/03/30 10:15:53;;;;;;;5.47;2.28;;;17.20;99.90;;;;;;5002754;28;20223;-64
2023/03/30 10:18:26;;;;;;;5.63;1.80;;;17.00;99.90;;;;;;5015566;28;20191;-65
2023/03/30 10:21:26;;;;;;;4.47;1.98;;;17.00;99.90;;;;;;5038897;28;20580;-65
2023/03/30 10:24:17;;;;;;;2.95;2.38;;;17.20;99.90;;;;;;5013753;28;20183;-64
2023/03/30 10:26:49;;;;;;;12.30;2.28;;;17.20;99.90;;;;;;5002730;28;20203;-65
2023/03/30 10:29:21;;;;;;;5.28;2.20;;;17.00;99.90;;;;;;5009362;28;20204;-64
2023/03/30 10:31:51;;;;;;;2.95;1.30;;;16.80;99.90;;;;;;5002331;28;20184;-65
2023/03/30 10:34:31;;;;;;;3.28;1.83;;;16.70;99.90;;;;;;4999219;28;20630;-65
2023/03/30 10:36:57;;;;;;;6.22;2.17;;;16.70;99.90;;;;;;5011606;28;20198;-65
2023/03/30 10:39:34;;;;;;;4.00;1.70;;;16.70;99.90;;;;;;5009104;28;20199;-64
2023/03/30 10:42:03;;;;;;;1.70;1.35;;;17.10;99.90;;;;;;5006094;28;20206;-65
2023/03/30 10:44:36;;;;;;;2.15;1.05;;;17.30;99.90;;;;;;5009812;28;20187;-64
2023/03/30 10:47:21;;;;;;;4.60;1.45;;;17.60;99.90;;;;;;5011638;28;20599;-65
2023/03/30 10:50:11;;;;;;;3.83;1.98;;;17.90;99.90;;;;;;5007408;28;20203;-65
2023/03/30 10:53:07;;;;;;;7.72;2.17;;;17.80;99.90;;;;;;4997350;28;20199;-66
2023/03/30 10:55:48;;;;;;;9.10;2.53;;;17.80;99.90;;;;;;5000047;28;20208;-65
2023/03/30 10:58:42;;;;;;;3.67;1.20;;;17.80;99.90;;;;;;5009676;28;20278;-65
2023/03/30 11:01:19;;;;;;;3.63;1.80;;;17.80;99.90;;;;;;5012389;28;20275;-65
2023/03/30 11:03:53;;;;;;;7.35;1.77;;;17.70;99.90;;;;;;4996654;28;20548;-66
2023/03/30 11:06:27;;;;;;;7.72;1.27;;;17.50;99.90;;;;;;5000662;28;20191;-65
2023/03/30 11:08:56;;;;;;;7.32;1.95;;;17.20;99.90;;;;;;5011831;28;20294;-65
2023/03/30 11:11:46;;;;;;;11.35;2.30;;;17.00;99.90;;;;;;5011231;28;20183;-65
2023/03/30 11:14:20;;;;;;;3.63;1.73;;;17.10;99.90;;;;;;4999431;28;20193;-65
2023/03/30 11:16:51;;;;;;;6.25;1.48;;;17.40;99.90;;;;;;5001612;28;20232;-65
2023/03/30 11:19:21;;;;;;;3.92;1.30;;;17.70;99.90;;;;;;5021961;28;20334;-65
2023/03/30 11:22:21;;;;;;;10.48;4.00;;;18.10;99.90;;;;;;5002989;28;20502;-66
2023/03/30 11:24:51;;;;;;;4.60;1.35;;;18.20;99.90;;;;;;5002583;28;20179;-65
2023/03/30 11:27:30;;;;;;;3.10;1.92;;;18.30;99.90;;;;;;5005439;28;20207;-66
2023/03/30 11:30:16;;;;;;;5.30;1.50;;;18.40;99.90;;;;;;5012576;28;20183;-65
2023/03/30 11:33:19;;;;;;;8.73;3.00;;;18.40;99.90;;;;;;5006525;28;20255;-66
2023/03/30 11:35:56;;;;;;;9.38;1.75;;;18.40;99.90;;;;;;5013354;28;20175;-66
2023/03/30 11:38:47;;;;;;;5.90;1.20;;;18.70;99.90;;;;;;5004847;28;20237;-66
2023/03/30 11:41:23;;;;;;;4.03;1.90;;;18.60;99.90;;;;;;5007138;28;20179;-65
2023/03/30 11:43:54;;;;;;;3.85;1.80;;;18.60;99.90;;;;;;5004364;28;20175;-66
2023/03/30 11:46:38;;;;;;;5.63;1.75;;;18.30;99.90;;;;;;5007529;28;20299;-66
2023/03/30 11:49:15;;;;;;;6.43;1.92;;;18.20;99.90;;;;;;5038213;28;20774;-65
2023/03/30 11:52:10;;;;;;;4.78;1.08;;;18.40;99.90;;;;;;5011673;28;20273;-65
2023/03/30 11:55:00;;;;;;;10.70;1.85;;;18.20;99.90;;;;;;5001306;28;20237;-66
2023/03/30 11:57:48;;;;;;;10.25;2.22;;;18.50;99.90;;;;;;5004604;28;20184;-67
2023/03/30 12:01:02;;;;;;;12.68;1.55;;;18.30;99.90;;;;;;4999538;28;20586;-67
2023/03/30 12:03:45;;;;;;;10.85;2.78;;;18.00;99.90;;;;;;4992647;28;20191;-66
2023/03/30 12:06:36;;;;;;;5.63;1.50;;;18.00;99.90;;;;;;5010765;28;20225;-65
2023/03/30 12:09:20;;;;;;;9.35;1.85;;;18.20;99.90;;;;;;5004648;28;20203;-65
2023/03/30 12:11:57;;;;;;;7.50;1.63;;;18.10;99.90;;;;;;5002575;28;20179;-67
2023/03/30 12:14:49;;;;;;;8.27;3.00;;;17.90;99.90;;;;;;5010883;28;20258;-64
2023/03/30 12:17:42;;;;;;;9.90;1.27;;;17.60;99.90;;;;;;4998666;28;20572;-65
2023/03/30 12:20:26;;;;;;;11.70;2.13;;;17.50;99.90;;;;;;5000265;28;20179;-65
2023/03/30 12:23:00;;;;;;;6.65;1.70;;;17.30;99.90;;;;;;5008935;28;20188;-65
2023/03/30 12:25:51;;;;;;;6.93;1.50;;;17.30;99.90;;;;;;5008261;28;20187;-66
2023/03/30 12:28:19;;;;;;;3.83;2.15;;;17.20;99.90;;;;;;4999998;28;20731;-65
2023/03/30 12:30:52;;;;;;;3.40;1.60;;;17.20;99.90;;;;;;5008821;28;20192;-65
2023/03/30 12:33:33;;;;;;;6.80;1.90;;;17.30;99.90;;;;;;5008345;28;20183;-65
2023/03/30 12:36:42;;;;;;;2.53;1.35;;;17.50;99.90;;;;;;5012021;28;20224;-66
2023/03/30 12:39:17;;;;;;;5.57;1.50;;;18.00;99.90;;;;;;4993289;28;20544;-66
2023/03/30 12:41:49;;;;;;;6.80;1.25;;;18.30;99.90;;;;;;5009035;28;20232;-67
2023/03/30 12:44:20;;;;;;;5.75;2.15;;;18.10;99.90;;;;;;5003456;28;20186;-65
2023/03/30 12:46:58;;;;;;;6.72;1.67;;;18.10;99.90;;;;;;5009122;28;20175;-66
2023/03/30 12:49:36;;;;;;;3.90;1.13;;;18.20;99.90;;;;;;5008855;28;20210;-65
2023/03/30 12:52:26;;;;;;;3.28;1.58;;;18.40;99.90;;;;;;5004857;28;20183;-65
2023/03/30 12:55:16;;;;;;;3.42;1.90;;;18.40;99.90;;;;;;5011234;28;20559;-66
2023/03/30 12:57:45;;;;;;;7.20;1.73;;;18.50;99.90;;;;;;5003097;28;20179;-65
2023/03/30 13:00:22;;;;;;;7.63;1.20;;;18.50;99.90;;;;;;5010784;28;20179;-65
2023/03/30 13:03:05;;;;;;;5.57;1.38;;;18.40;99.90;;;;;;5002374;28;20184;-66
2023/03/30 13:05:34;;;;;;;7.72;1.95;;;18.40;99.90;;;;;;5002517;28;20199;-66
2023/03/30 13:08:06;;;;;;;3.38;1.55;;;18.20;99.90;;;;;;5012817;28;20315;-67
2023/03/30 13:10:39;;;;;;;10.35;1.77;;;18.20;99.90;;;;;;5001662;28;20184;-67
2023/03/30 13:13:35;;;;;;;6.50;1.50;;;18.30;99.90;;;;;;5008376;28;20265;-66